Time;durP1;ratioP1;P1;durP2;ratioP2;P2;SDS_P1;SDS_P2;PMS_P1;PMS_P2;Temp;Humidity;BMP_temperature;BMP_pressure;BME280_temperature;BME280_humidity;BME280_pressure;Samples;Min_cycle;Max_cycle;Signal;HPM_P1;HPM_P2
2024/02/19 00:02:12;;;;;;;4.15;1.00;;;7.60;99.90;;;;;;4938529;29;20556;-83
2024/02/19 00:04:39;;;;;;;5.22;1.02;;;8.00;99.90;;;;;;4938294;29;20043;-83
2024/02/19 00:07:06;;;;;;;8.48;1.10;;;7.20;99.90;;;;;;4935870;29;20618;-82
2024/02/19 00:09:33;;;;;;;12.50;1.40;;;7.20;99.90;;;;;;4918398;29;20079;-83
2024/02/19 00:11:59;;;;;;;11.10;1.40;;;7.20;99.90;;;;;;4936121;29;20460;-83
2024/02/19 00:14:26;;;;;;;8.38;1.23;;;7.20;99.90;;;;;;4938234;29;20039;-83
2024/02/19 00:16:53;;;;;;;4.88;1.13;;;7.70;99.90;;;;;;4934378;29;20051;-83
2024/02/19 00:19:21;;;;;;;10.07;1.30;;;7.30;99.90;;;;;;4934551;29;20111;-83
2024/02/19 00:21:47;;;;;;;7.93;1.10;;;7.20;99.90;;;;;;4934870;29;20075;-83
2024/02/19 00:24:14;;;;;;;11.10;1.63;;;7.20;99.90;;;;;;4937636;29;20063;-83
2024/02/19 00:26:41;;;;;;;15.93;2.38;;;7.20;99.90;;;;;;4937946;29;20050;-83
2024/02/19 00:29:07;;;;;;;13.80;1.33;;;7.20;99.90;;;;;;4957005;29;20130;-83
2024/02/19 00:31:34;;;;;;;10.38;2.00;;;7.20;99.90;;;;;;4938664;29;20151;-83
2024/02/19 00:34:01;;;;;;;14.65;2.08;;;7.20;99.90;;;;;;4937413;29;20052;-83
2024/02/19 00:36:28;;;;;;;17.55;2.13;;;7.20;99.90;;;;;;4952914;29;20047;-83
2024/02/19 00:38:54;;;;;;;13.70;1.73;;;7.20;99.90;;;;;;4937286;29;20527;-83
2024/02/19 00:41:21;;;;;;;12.73;2.08;;;7.20;99.90;;;;;;4953626;29;20044;-83
2024/02/19 00:43:48;;;;;;;13.02;2.03;;;7.20;99.90;;;;;;4937261;29;20039;-83
2024/02/19 00:46:15;;;;;;;15.63;2.20;;;7.70;99.90;;;;;;4937530;29;20119;-83
2024/02/19 00:48:41;;;;;;;18.15;2.63;;;7.10;99.90;;;;;;4944339;29;20049;-83
2024/02/19 00:51:08;;;;;;;16.85;1.77;;;7.20;99.90;;;;;;4939827;29;20048;-83
2024/02/19 00:53:38;;;;;;;18.38;2.35;;;7.80;99.90;;;;;;4937301;29;20047;-83
2024/02/19 00:56:05;;;;;;;26.38;2.67;;;7.80;99.90;;;;;;4932442;29;20041;-83
2024/02/19 00:58:32;;;;;;;21.48;2.85;;;7.30;99.90;;;;;;4929546;29;20031;-83
2024/02/19 01:00:59;;;;;;;20.35;2.45;;;7.30;99.90;;;;;;4938131;29;20123;-83
2024/02/19 01:03:26;;;;;;;21.90;3.38;;;7.90;99.90;;;;;;4930099;29;20052;-83
2024/02/19 01:05:52;;;;;;;22.48;2.80;;;7.20;99.90;;;;;;4946742;29;20040;-83
2024/02/19 01:08:19;;;;;;;15.45;2.38;;;7.30;99.90;;;;;;4934737;29;20038;-83
2024/02/19 01:10:46;;;;;;;15.23;1.70;;;7.20;99.90;;;;;;4964472;29;20145;-83
2024/02/19 01:13:13;;;;;;;14.02;1.75;;;7.20;99.90;;;;;;4929476;29;20044;-83
2024/02/19 01:15:39;;;;;;;4.70;1.30;;;7.20;99.90;;;;;;4932146;29;20043;-83
2024/02/19 01:18:06;;;;;;;11.88;1.60;;;7.20;99.90;;;;;;4949735;29;20036;-83
2024/02/19 01:20:32;;;;;;;12.02;1.45;;;7.20;99.90;;;;;;4931332;29;20043;-83
2024/02/19 01:22:59;;;;;;;11.18;1.40;;;7.20;99.90;;;;;;4952234;29;20488;-83
2024/02/19 01:25:26;;;;;;;11.73;1.55;;;7.10;99.90;;;;;;4922654;29;20113;-83
2024/02/19 01:27:52;;;;;;;9.45;1.10;;;7.70;99.90;;;;;;4936226;29;20043;-83
2024/02/19 01:30:19;;;;;;;12.77;1.30;;;7.10;99.90;;;;;;4936803;29;20048;-83
2024/02/19 01:32:46;;;;;;;10.23;1.50;;;7.60;99.90;;;;;;4936220;29;20520;-83
2024/02/19 01:35:12;;;;;;;7.70;1.27;;;7.40;99.90;;;;;;4952132;29;20051;-83
2024/02/19 01:37:39;;;;;;;7.03;1.02;;;7.10;99.90;;;;;;4936486;29;20062;-83
2024/02/19 01:40:09;;;;;;;7.13;1.58;;;7.10;99.90;;;;;;4936209;29;20043;-83
2024/02/19 01:42:35;;;;;;;7.88;1.52;;;7.10;99.90;;;;;;4947662;29;20054;-83
2024/02/19 01:45:03;;;;;;;8.35;1.17;;;7.70;99.90;;;;;;4937075;29;20036;-83
2024/02/19 01:47:30;;;;;;;7.18;1.33;;;7.10;99.90;;;;;;4955991;29;20043;-83
2024/02/19 01:49:57;;;;;;;10.65;1.10;;;7.10;99.90;;;;;;4935322;29;20553;-82
2024/02/19 01:52:24;;;;;;;10.20;1.17;;;7.10;99.90;;;;;;4936691;29;20131;-83
2024/02/19 01:54:52;;;;;;;11.93;1.17;;;7.10;99.90;;;;;;4951875;29;20047;-83
2024/02/19 01:57:19;;;;;;;13.82;1.40;;;7.10;99.90;;;;;;4936264;29;20119;-83
2024/02/19 01:59:47;;;;;;;7.53;1.23;;;8.10;99.90;;;;;;4936070;29;20044;-83
2024/02/19 02:02:15;;;;;;;9.13;1.27;;;7.90;99.90;;;;;;4952283;29;20123;-83
2024/02/19 02:04:41;;;;;;;3.58;0.73;;;7.90;99.90;;;;;;4926234;29;20044;-83
2024/02/19 02:07:08;;;;;;;4.78;0.98;;;7.20;99.90;;;;;;4930366;29;20099;-83
2024/02/19 02:09:36;;;;;;;4.82;0.80;;;7.10;99.90;;;;;;4935940;29;20464;-83
2024/02/19 02:12:02;;;;;;;6.60;1.00;;;7.10;99.90;;;;;;4948762;29;20048;-83
2024/02/19 02:14:29;;;;;;;5.82;1.10;;;7.10;99.90;;;;;;4929908;29;20042;-83
2024/02/19 02:16:56;;;;;;;5.05;1.13;;;7.10;99.90;;;;;;4933602;29;20062;-83
2024/02/19 02:19:22;;;;;;;8.57;1.30;;;7.10;99.90;;;;;;4945988;29;20051;-83
2024/02/19 02:21:49;;;;;;;9.88;0.90;;;7.70;99.90;;;;;;4936140;29;20063;-83
2024/02/19 02:24:15;;;;;;;12.25;1.27;;;7.50;99.90;;;;;;4953427;29;20104;-83
2024/02/19 02:26:42;;;;;;;5.35;0.73;;;7.10;99.90;;;;;;4944625;29;20114;-83
2024/02/19 02:29:09;;;;;;;5.63;1.13;;;7.40;99.90;;;;;;4934417;29;20087;-82
2024/02/19 02:31:35;;;;;;;11.65;1.20;;;7.10;99.90;;;;;;4951712;29;20051;-83
2024/02/19 02:34:02;;;;;;;14.13;1.50;;;7.10;99.90;;;;;;4930526;29;20040;-83
2024/02/19 02:36:29;;;;;;;10.77;1.25;;;7.10;99.90;;;;;;4939636;29;20035;-83
2024/02/19 02:38:55;;;;;;;13.20;1.17;;;7.10;99.90;;;;;;4927346;29;20048;-83
2024/02/19 02:41:22;;;;;;;5.53;1.00;;;7.10;99.90;;;;;;4935115;29;20039;-83
2024/02/19 02:43:49;;;;;;;7.18;1.15;;;7.20;99.90;;;;;;4940226;29;20591;-83
2024/02/19 02:46:16;;;;;;;6.60;1.00;;;7.30;99.90;;;;;;4923876;29;20490;-83
2024/02/19 02:48:42;;;;;;;11.25;1.30;;;7.20;99.90;;;;;;4930453;29;20051;-82
2024/02/19 02:51:09;;;;;;;6.70;0.98;;;7.70;99.90;;;;;;4935636;29;20123;-83
2024/02/19 02:53:35;;;;;;;6.70;1.10;;;7.20;99.90;;;;;;4936963;29;20091;-83
2024/02/19 02:56:02;;;;;;;10.70;1.10;;;7.80;99.90;;;;;;4939286;29;20126;-83
2024/02/19 02:58:29;;;;;;;9.05;1.30;;;7.20;99.90;;;;;;4939678;29;20043;-83
2024/02/19 03:00:55;;;;;;;7.80;1.17;;;7.30;99.90;;;;;;4948358;29;20042;-83
2024/02/19 03:03:22;;;;;;;11.93;2.03;;;7.30;99.90;;;;;;4945920;29;20098;-83
2024/02/19 03:05:49;;;;;;;13.20;1.65;;;7.30;99.90;;;;;;4936812;29;20135;-83
2024/02/19 03:08:15;;;;;;;7.63;1.20;;;7.30;99.90;;;;;;4947910;29;20053;-83
2024/02/19 03:10:43;;;;;;;8.07;1.58;;;7.20;99.90;;;;;;4939186;29;20044;-83
2024/02/19 03:13:09;;;;;;;10.43;1.17;;;7.60;99.90;;;;;;4932204;29;20067;-83
2024/02/19 03:15:36;;;;;;;4.60;0.88;;;7.40;99.90;;;;;;4939690;29;20067;-83
2024/02/19 03:18:04;;;;;;;7.63;1.15;;;7.30;99.90;;;;;;4939018;29;20060;-83
2024/02/19 03:20:30;;;;;;;15.43;2.30;;;7.30;99.90;;;;;;4954615;29;20084;-83
2024/02/19 03:22:57;;;;;;;13.45;1.27;;;7.90;99.90;;;;;;4921082;29;20040;-83
2024/02/19 03:25:24;;;;;;;6.90;1.55;;;7.40;99.90;;;;;;4951244;29;20040;-83
2024/02/19 03:27:51;;;;;;;9.10;1.38;;;7.40;99.90;;;;;;4939973;29;20556;-83
2024/02/19 03:30:18;;;;;;;9.48;1.17;;;7.60;99.90;;;;;;4954364;29;20078;-82
2024/02/19 03:32:44;;;;;;;6.63;1.45;;;7.40;99.90;;;;;;4938188;29;20469;-83
2024/02/19 03:35:12;;;;;;;5.47;1.00;;;7.40;99.90;;;;;;4938941;29;20043;-83
2024/02/19 03:37:38;;;;;;;9.95;1.40;;;7.40;99.90;;;;;;4938494;29;20051;-83
2024/02/19 03:40:07;;;;;;;6.75;1.00;;;7.40;99.90;;;;;;4942413;29;20054;-83
2024/02/19 03:42:33;;;;;;;13.00;1.05;;;7.40;99.90;;;;;;4938202;29;20090;-83
2024/02/19 03:45:01;;;;;;;8.05;0.82;;;7.40;99.90;;;;;;4937164;29;20036;-82
2024/02/19 03:47:27;;;;;;;11.65;2.03;;;7.40;99.90;;;;;;4935543;29;20036;-83
2024/02/19 03:49:54;;;;;;;8.05;0.90;;;7.40;99.90;;;;;;4938683;29;20044;-83
2024/02/19 03:52:20;;;;;;;10.90;1.10;;;7.40;99.90;;;;;;4938492;29;20043;-83
2024/02/19 03:54:47;;;;;;;8.05;1.70;;;7.40;99.90;;;;;;4931650;29;20047;-83
2024/02/19 03:57:14;;;;;;;5.00;0.90;;;7.50;99.90;;;;;;4920631;29;20044;-83
2024/02/19 03:59:41;;;;;;;7.45;1.17;;;7.40;99.90;;;;;;4957644;29;20039;-83
2024/02/19 04:02:08;;;;;;;3.85;0.68;;;7.50;99.90;;;;;;4937854;29;20035;-83
2024/02/19 04:04:34;;;;;;;5.90;0.80;;;7.80;99.90;;;;;;4938050;29;20654;-83
2024/02/19 04:07:01;;;;;;;9.45;1.15;;;7.50;99.90;;;;;;4938085;29;20036;-83
2024/02/19 04:09:28;;;;;;;5.00;0.75;;;7.50;99.90;;;;;;4938182;29;20122;-83
2024/02/19 04:11:54;;;;;;;10.07;1.23;;;8.00;99.90;;;;;;4938307;29;20098;-82
2024/02/19 04:14:21;;;;;;;8.25;0.90;;;7.60;99.90;;;;;;4937966;29;20063;-83
2024/02/19 04:16:48;;;;;;;5.88;0.85;;;7.60;99.90;;;;;;4935049;29;20047;-82
2024/02/19 04:19:16;;;;;;;5.40;0.68;;;8.10;99.90;;;;;;4929107;29;20114;-83
2024/02/19 04:21:44;;;;;;;9.23;1.08;;;8.60;99.90;;;;;;4937753;29;20039;-83
2024/02/19 04:24:12;;;;;;;8.52;0.98;;;7.70;99.90;;;;;;4937999;29;20036;-83
2024/02/19 04:26:39;;;;;;;4.45;0.98;;;7.60;99.90;;;;;;4937156;29;20044;-82
2024/02/19 04:29:05;;;;;;;8.55;0.90;;;7.70;99.90;;;;;;4937303;29;20036;-83
2024/02/19 04:31:32;;;;;;;6.43;1.00;;;7.70;99.90;;;;;;4937410;29;20816;-83
2024/02/19 04:33:59;;;;;;;5.28;0.82;;;7.70;99.90;;;;;;4953476;29;20035;-83
2024/02/19 04:36:25;;;;;;;6.15;1.10;;;7.70;99.90;;;;;;4934049;29;20111;-83
2024/02/19 04:38:52;;;;;;;9.07;1.15;;;7.70;99.90;;;;;;4946597;29;20040;-83
2024/02/19 04:41:19;;;;;;;5.93;0.85;;;8.00;99.90;;;;;;4921082;29;20421;-83
2024/02/19 04:43:45;;;;;;;4.45;0.75;;;8.30;99.90;;;;;;4937181;29;20492;-83
2024/02/19 04:46:12;;;;;;;10.20;1.10;;;8.20;99.90;;;;;;4934426;29;20040;-83
2024/02/19 04:48:38;;;;;;;6.10;0.95;;;7.60;99.90;;;;;;4941158;29;20040;-83
2024/02/19 04:51:05;;;;;;;12.27;1.30;;;7.60;99.90;;;;;;4934334;29;20039;-83
2024/02/19 04:53:32;;;;;;;12.10;1.65;;;7.70;99.90;;;;;;4937689;29;20078;-83
2024/02/19 04:55:58;;;;;;;7.00;1.13;;;7.60;99.90;;;;;;4936830;29;20051;-83
2024/02/19 04:58:25;;;;;;;4.13;0.90;;;7.60;99.90;;;;;;4941062;29;20564;-83
2024/02/19 05:00:52;;;;;;;5.10;1.35;;;7.60;99.90;;;;;;4924696;29;20174;-83
2024/02/19 05:03:19;;;;;;;5.22;1.05;;;7.60;99.90;;;;;;4937108;29;20047;-83
2024/02/19 05:05:45;;;;;;;13.77;1.33;;;8.40;99.90;;;;;;4937221;29;20031;-83
2024/02/19 05:08:12;;;;;;;12.38;1.73;;;7.60;99.90;;;;;;4936933;29;20032;-83
2024/02/19 05:10:38;;;;;;;8.77;1.27;;;7.50;99.90;;;;;;4936802;29;20489;-83
2024/02/19 05:13:05;;;;;;;9.18;1.30;;;7.50;99.90;;;;;;4952863;29;20040;-83
2024/02/19 05:15:32;;;;;;;10.43;1.98;;;7.50;99.90;;;;;;4937108;29;20461;-83
2024/02/19 05:17:59;;;;;;;14.32;1.40;;;7.40;99.90;;;;;;4936831;29;20035;-83
2024/02/19 05:20:26;;;;;;;7.38;1.10;;;7.50;99.90;;;;;;4924367;29;20043;-83
2024/02/19 05:22:52;;;;;;;11.07;2.00;;;7.40;99.90;;;;;;4929789;29;20040;-83
2024/02/19 05:25:19;;;;;;;12.88;1.25;;;7.40;99.90;;;;;;4937218;29;20043;-82
2024/02/19 05:27:45;;;;;;;11.45;1.40;;;7.70;99.90;;;;;;4936458;29;20059;-83
2024/02/19 05:30:12;;;;;;;16.48;1.80;;;7.80;99.90;;;;;;4936892;29;20071;-83
2024/02/19 05:32:39;;;;;;;9.82;1.60;;;7.40;99.90;;;;;;4936520;29;20118;-83
2024/02/19 05:35:06;;;;;;;14.70;1.50;;;7.50;99.90;;;;;;4934555;29;20092;-83
2024/02/19 05:37:33;;;;;;;17.73;2.45;;;7.50;99.90;;;;;;4933162;29;20040;-83
2024/02/19 05:40:00;;;;;;;15.05;1.95;;;8.30;99.90;;;;;;4933375;29;20043;-83
2024/02/19 05:42:26;;;;;;;15.27;2.00;;;7.50;99.90;;;;;;4937950;29;20036;-83
2024/02/19 05:44:53;;;;;;;11.70;1.55;;;7.50;99.90;;;;;;4936292;29;20046;-83
2024/02/19 05:47:20;;;;;;;12.98;2.03;;;7.40;99.90;;;;;;4932986;29;20048;-83
2024/02/19 05:49:48;;;;;;;17.52;1.85;;;7.60;99.90;;;;;;4928432;29;20066;-83
2024/02/19 05:52:14;;;;;;;16.23;1.80;;;7.40;99.90;;;;;;4936440;29;20171;-83
2024/02/19 05:54:41;;;;;;;17.85;1.80;;;8.10;99.90;;;;;;4936520;29;20126;-83
2024/02/19 05:57:07;;;;;;;14.48;2.15;;;7.40;99.90;;;;;;4936363;29;20047;-83
2024/02/19 05:59:34;;;;;;;17.05;2.10;;;7.90;99.90;;;;;;4936523;29;20044;-83
2024/02/19 06:02:01;;;;;;;15.70;2.17;;;7.80;99.90;;;;;;4948162;29;20043;-83
2024/02/19 06:04:27;;;;;;;15.32;2.40;;;7.60;99.90;;;;;;4936357;29;20058;-83
2024/02/19 06:06:54;;;;;;;16.45;2.90;;;7.40;99.90;;;;;;4916943;29;20103;-83
2024/02/19 06:09:21;;;;;;;21.77;2.80;;;7.50;99.90;;;;;;4930676;29;20051;-83
2024/02/19 06:11:47;;;;;;;16.40;2.47;;;7.40;99.90;;;;;;4936242;29;20544;-83
2024/02/19 06:14:14;;;;;;;18.52;2.53;;;7.40;99.90;;;;;;4931863;29;20048;-83
2024/02/19 06:16:41;;;;;;;23.60;2.70;;;7.50;99.90;;;;;;4918050;29;20053;-82
2024/02/19 06:19:08;;;;;;;13.57;2.15;;;7.50;99.90;;;;;;4925000;29;20061;-83
2024/02/19 06:21:35;;;;;;;21.08;1.90;;;7.70;99.90;;;;;;4935626;29;20036;-83
2024/02/19 06:24:02;;;;;;;14.15;2.67;;;7.50;99.90;;;;;;4948559;29;20103;-83
2024/02/19 06:26:28;;;;;;;17.75;2.75;;;7.50;99.90;;;;;;4935867;29;20415;-83
2024/02/19 06:28:55;;;;;;;22.30;2.72;;;7.50;99.90;;;;;;4928404;29;20050;-83
2024/02/19 06:31:27;;;;;;;14.30;2.22;;;7.50;99.90;;;;;;4935815;29;20048;-83
2024/02/19 06:33:54;;;;;;;18.55;2.13;;;7.50;99.90;;;;;;4935033;29;20051;-83
2024/02/19 06:36:21;;;;;;;23.95;3.42;;;7.80;99.90;;;;;;4934164;29;20142;-83
2024/02/19 06:38:48;;;;;;;13.52;2.70;;;7.70;99.90;;;;;;4927564;29;20695;-83
2024/02/19 06:41:14;;;;;;;16.90;3.03;;;7.50;99.90;;;;;;4935227;29;20044;-83
2024/02/19 06:43:41;;;;;;;16.30;2.10;;;7.60;99.90;;;;;;4935335;29;20039;-83
2024/02/19 06:46:10;;;;;;;21.58;2.67;;;7.50;99.90;;;;;;4935357;29;20048;-83
2024/02/19 06:48:36;;;;;;;15.20;3.63;;;7.60;99.90;;;;;;4935431;29;20091;-83
2024/02/19 06:51:04;;;;;;;21.27;2.50;;;8.20;99.90;;;;;;4935123;29;20039;-83
2024/02/19 06:53:30;;;;;;;27.17;3.00;;;7.60;99.90;;;;;;4935603;29;20039;-83
2024/02/19 06:55:57;;;;;;;21.23;2.58;;;7.60;99.90;;;;;;4935665;29;20050;-84
2024/02/19 06:58:24;;;;;;;23.08;3.20;;;7.70;99.90;;;;;;4951795;29;20055;-83
2024/02/19 07:00:51;;;;;;;18.42;2.40;;;7.60;99.90;;;;;;4934468;29;20063;-84
2024/02/19 07:03:17;;;;;;;15.32;2.78;;;7.50;99.90;;;;;;4935600;29;20036;-84
2024/02/19 07:05:44;;;;;;;19.58;2.35;;;7.60;99.90;;;;;;4948145;29;20040;-84
2024/02/19 07:08:12;;;;;;;21.73;3.05;;;7.60;99.90;;;;;;4935189;29;20044;-83
2024/02/19 07:10:39;;;;;;;17.35;3.00;;;7.60;99.90;;;;;;4963032;29;20054;-83
2024/02/19 07:13:06;;;;;;;21.90;2.70;;;8.20;99.90;;;;;;4934143;29;20394;-83
2024/02/19 07:15:33;;;;;;;21.33;2.50;;;7.70;99.90;;;;;;4927404;29;20126;-83
2024/02/19 07:18:00;;;;;;;25.17;3.00;;;8.10;99.90;;;;;;4936217;29;20563;-84
2024/02/19 07:20:26;;;;;;;21.25;2.65;;;7.70;99.90;;;;;;4938746;29;20036;-84
2024/02/19 07:22:53;;;;;;;17.63;2.60;;;8.20;99.90;;;;;;4939052;29;20040;-84
2024/02/19 07:25:19;;;;;;;28.15;2.72;;;8.00;99.90;;;;;;4933571;29;20032;-84
2024/02/19 07:27:46;;;;;;;14.50;2.60;;;7.80;99.90;;;;;;4954118;29;20031;-84
2024/02/19 07:30:13;;;;;;;26.30;3.03;;;7.70;99.90;;;;;;4938798;29;20066;-84
2024/02/19 07:32:39;;;;;;;20.50;2.65;;;7.70;99.90;;;;;;4936807;29;20482;-84
2024/02/19 07:35:07;;;;;;;27.08;4.35;;;8.00;99.90;;;;;;4938226;29;20079;-84
2024/02/19 07:37:34;;;;;;;19.33;3.90;;;7.80;99.90;;;;;;4927426;29;20051;-84
2024/02/19 07:40:02;;;;;;;23.77;3.88;;;7.80;99.90;;;;;;4937805;29;20043;-85
2024/02/19 07:42:28;;;;;;;20.08;3.35;;;7.80;99.90;;;;;;4938442;29;20039;-84
2024/02/19 07:44:55;;;;;;;23.70;3.63;;;8.00;99.90;;;;;;4949574;29;20111;-89
2024/02/19 07:47:22;;;;;;;25.42;3.83;;;7.90;99.90;;;;;;4932253;29;20082;-84
2024/02/19 07:49:48;;;;;;;30.90;4.57;;;8.30;99.90;;;;;;4943887;29;20043;-84
2024/02/19 07:52:15;;;;;;;23.08;3.58;;;8.50;99.90;;;;;;4932814;29;20043;-84
2024/02/19 07:54:42;;;;;;;22.95;3.83;;;7.90;99.90;;;;;;4936980;29;20039;-84
2024/02/19 07:57:08;;;;;;;27.13;4.15;;;7.90;99.90;;;;;;4931915;29;20036;-84
2024/02/19 07:59:36;;;;;;;27.42;4.00;;;7.90;99.90;;;;;;4952297;29;20127;-84
2024/02/19 08:02:02;;;;;;;25.58;5.40;;;8.30;99.90;;;;;;4953517;29;20044;-83
2024/02/19 08:04:29;;;;;;;35.80;9.90;;;8.00;99.90;;;;;;4952012;29;20044;-83
2024/02/19 08:06:56;;;;;;;31.55;6.95;;;8.30;99.90;;;;;;4952595;29;20165;-84
2024/02/19 08:09:22;;;;;;;27.77;6.82;;;8.10;99.90;;;;;;4937244;29;20722;-84
2024/02/19 08:11:51;;;;;;;30.65;5.32;;;8.10;99.90;;;;;;4934867;29;20756;-84
2024/02/19 08:14:19;;;;;;;38.00;6.05;;;8.10;99.90;;;;;;4938093;29;20442;-84
2024/02/19 08:16:49;;;;;;;26.77;6.22;;;8.20;99.90;;;;;;4937464;29;20063;-84
2024/02/19 08:19:17;;;;;;;27.48;6.28;;;8.40;99.90;;;;;;4933185;29;20459;-84
2024/02/19 08:21:44;;;;;;;27.50;5.40;;;8.20;99.90;;;;;;4937633;29;20055;-84
2024/02/19 08:24:11;;;;;;;35.72;6.45;;;8.30;99.90;;;;;;4934326;29;20526;-84
2024/02/19 08:26:38;;;;;;;21.45;4.97;;;8.30;99.90;;;;;;4938919;29;20260;-84
2024/02/19 08:29:05;;;;;;;29.95;4.88;;;8.30;99.90;;;;;;4937006;29;20508;-84
2024/02/19 08:31:32;;;;;;;23.50;4.78;;;8.40;99.90;;;;;;4936607;29;20063;-84
2024/02/19 08:33:59;;;;;;;25.77;5.03;;;8.40;99.90;;;;;;4951857;29;20044;-84
2024/02/19 08:36:26;;;;;;;22.83;4.53;;;8.40;99.90;;;;;;4937708;29;20040;-84
2024/02/19 08:38:53;;;;;;;28.17;5.75;;;8.50;99.90;;;;;;4934817;29;20036;-84
2024/02/19 08:41:20;;;;;;;24.35;4.80;;;8.40;99.90;;;;;;4937035;29;20040;-84
2024/02/19 08:43:46;;;;;;;17.17;4.05;;;8.70;99.90;;;;;;4950396;29;20036;-84
2024/02/19 08:46:15;;;;;;;25.08;4.32;;;8.40;99.90;;;;;;4936974;29;20042;-84
2024/02/19 08:48:42;;;;;;;31.75;4.60;;;8.40;99.90;;;;;;4936789;29;20031;-84
2024/02/19 08:51:09;;;;;;;27.50;4.20;;;9.20;99.90;;;;;;4953018;29;20134;-84
2024/02/19 08:53:35;;;;;;;21.88;3.83;;;8.50;99.90;;;;;;4935753;29;20569;-85
2024/02/19 08:56:02;;;;;;;24.63;4.90;;;8.50;99.90;;;;;;4949427;29;20051;-84
2024/02/19 08:58:30;;;;;;;20.35;3.70;;;8.60;99.90;;;;;;4946275;29;20201;-83
2024/02/19 09:00:59;;;;;;;21.58;4.22;;;8.60;99.90;;;;;;4922670;29;20047;-84
2024/02/19 09:03:25;;;;;;;18.23;4.25;;;8.70;99.90;;;;;;4952438;29;20416;-83
2024/02/19 09:05:52;;;;;;;18.30;4.13;;;8.80;99.90;;;;;;4938007;29;20048;-84
2024/02/19 09:08:19;;;;;;;21.63;4.00;;;9.20;99.90;;;;;;4936237;29;20040;-84
2024/02/19 09:10:45;;;;;;;25.38;4.47;;;9.00;99.90;;;;;;4935512;29;20466;-84
2024/02/19 09:13:12;;;;;;;25.15;4.25;;;8.90;99.90;;;;;;4936212;29;20107;-84
2024/02/19 09:15:39;;;;;;;23.88;4.63;;;9.00;99.90;;;;;;4950712;29;20058;-84
2024/02/19 09:18:05;;;;;;;22.30;4.32;;;9.00;99.90;;;;;;4927535;29;20090;-83
2024/02/19 09:20:32;;;;;;;19.92;4.72;;;9.10;99.90;;;;;;4936511;29;20130;-84
2024/02/19 09:23:00;;;;;;;27.17;3.90;;;9.10;99.90;;;;;;4936898;29;20130;-84
2024/02/19 09:25:26;;;;;;;22.83;3.75;;;9.20;99.90;;;;;;4952216;29;20040;-84
2024/02/19 09:27:53;;;;;;;24.40;4.35;;;9.20;99.90;;;;;;4936584;29;20046;-84
2024/02/19 09:30:19;;;;;;;23.02;4.78;;;9.20;99.90;;;;;;4949081;29;20394;-84
2024/02/19 09:32:46;;;;;;;15.63;3.70;;;9.30;99.90;;;;;;4930091;29;20465;-84
2024/02/19 09:35:13;;;;;;;18.75;4.32;;;9.30;99.90;;;;;;4943410;29;20097;-84
2024/02/19 09:37:39;;;;;;;20.65;4.22;;;9.40;99.90;;;;;;4936410;29;20134;-84
2024/02/19 09:40:07;;;;;;;19.60;4.30;;;9.40;99.90;;;;;;4936558;29;20401;-84
2024/02/19 09:42:35;;;;;;;17.80;4.43;;;9.40;99.90;;;;;;4958040;29;20043;-85
2024/02/19 09:45:02;;;;;;;20.90;3.92;;;9.40;99.90;;;;;;4956224;29;20118;-84
2024/02/19 09:47:31;;;;;;;19.10;3.83;;;9.50;99.90;;;;;;4919020;29;20092;-84
2024/02/19 09:49:57;;;;;;;22.17;4.78;;;9.60;99.90;;;;;;4936385;29;20094;-84
2024/02/19 09:52:25;;;;;;;18.85;5.10;;;9.90;99.90;;;;;;4948695;29;20123;-84
2024/02/19 09:54:52;;;;;;;20.08;4.07;;;9.50;99.90;;;;;;4930029;29;20044;-84
2024/02/19 09:57:19;;;;;;;18.83;4.82;;;9.50;99.90;;;;;;4935453;29;20054;-84
2024/02/19 09:59:47;;;;;;;17.85;4.85;;;9.60;99.90;;;;;;4920511;29;20043;-84
2024/02/19 10:02:18;;;;;;;19.25;4.10;;;9.50;99.90;;;;;;4926562;29;20035;-84
2024/02/19 10:04:46;;;;;;;19.45;4.35;;;9.50;99.90;;;;;;4935801;29;20035;-84
2024/02/19 10:07:20;;;;;;;13.60;4.22;;;9.50;99.90;;;;;;4936225;29;20079;-83
2024/02/19 10:09:47;;;;;;;10.05;3.75;;;9.60;99.90;;;;;;4935595;29;20520;-84
2024/02/19 10:12:14;;;;;;;16.70;4.30;;;9.50;99.90;;;;;;4952113;29;20043;-84
2024/02/19 10:14:41;;;;;;;18.27;4.03;;;9.60;99.90;;;;;;4936484;29;20161;-83
2024/02/19 10:17:08;;;;;;;18.77;4.13;;;9.60;99.90;;;;;;4935902;29;20103;-84
2024/02/19 10:19:36;;;;;;;15.90;3.55;;;9.60;99.90;;;;;;4944242;29;20046;-84
2024/02/19 10:22:02;;;;;;;16.17;3.55;;;9.50;99.90;;;;;;4938434;29;20719;-84
2024/02/19 10:24:29;;;;;;;22.42;4.13;;;9.50;99.90;;;;;;4936205;29;20048;-84
2024/02/19 10:26:57;;;;;;;17.27;3.88;;;10.30;99.90;;;;;;4934158;29;20061;-84
2024/02/19 10:29:27;;;;;;;28.27;4.40;;;9.50;99.90;;;;;;4925221;29;20468;-84
2024/02/19 10:31:54;;;;;;;21.80;4.63;;;9.90;99.90;;;;;;4933331;29;20060;-84
2024/02/19 10:34:21;;;;;;;18.25;4.47;;;9.50;99.90;;;;;;4936107;29;20493;-84
2024/02/19 10:36:49;;;;;;;16.10;4.88;;;9.40;99.90;;;;;;4935903;29;20194;-84
2024/02/19 10:39:16;;;;;;;17.77;4.82;;;10.30;99.90;;;;;;4931804;29;20040;-84
2024/02/19 10:41:42;;;;;;;16.77;4.63;;;9.40;99.90;;;;;;4939339;29;20099;-83
2024/02/19 10:44:09;;;;;;;15.50;5.20;;;9.40;99.90;;;;;;4929148;29;20031;-84
2024/02/19 10:46:36;;;;;;;21.48;4.97;;;9.40;99.90;;;;;;4935685;29;20171;-84
2024/02/19 10:49:04;;;;;;;18.88;6.32;;;9.40;99.90;;;;;;4934857;29;20043;-84
2024/02/19 10:51:30;;;;;;;22.58;5.68;;;9.40;99.90;;;;;;4938729;29;20183;-83
2024/02/19 10:53:59;;;;;;;17.63;5.22;;;9.40;99.90;;;;;;4933772;29;20123;-83
2024/02/19 10:56:37;;;;;;;21.63;5.82;;;10.00;99.90;;;;;;4939195;29;20114;-83
2024/02/19 10:59:04;;;;;;;20.40;5.45;;;9.40;99.90;;;;;;4941159;29;20090;-83
2024/02/19 11:01:44;;;;;;;24.58;5.65;;;9.40;99.90;;;;;;4953717;29;20039;-83
2024/02/19 11:04:20;;;;;;;17.30;5.85;;;9.40;99.90;;;;;;4938228;29;20178;-83
2024/02/19 11:06:54;;;;;;;30.65;6.28;;;9.40;99.90;;;;;;4936890;29;20039;-84
2024/02/19 11:09:22;;;;;;;25.02;6.20;;;9.50;99.90;;;;;;4939005;29;20039;-83
2024/02/19 11:11:53;;;;;;;24.27;6.22;;;9.50;99.90;;;;;;4939267;29;20035;-83
2024/02/19 11:14:21;;;;;;;17.45;6.07;;;9.60;99.90;;;;;;4939020;29;20405;-84
2024/02/19 11:16:53;;;;;;;21.40;5.93;;;9.60;99.90;;;;;;4936338;29;20036;-84
2024/02/19 11:19:20;;;;;;;22.50;6.20;;;9.60;99.90;;;;;;4938758;29;20043;-83
2024/02/19 11:21:47;;;;;;;27.20;6.05;;;9.60;99.90;;;;;;4938948;29;20039;-83
2024/02/19 11:24:14;;;;;;;26.42;7.28;;;9.70;99.90;;;;;;4936148;29;20126;-83
2024/02/19 11:26:44;;;;;;;21.02;7.03;;;10.10;99.90;;;;;;4933781;29;20473;-84
2024/02/19 11:29:14;;;;;;;20.45;6.80;;;9.80;99.90;;;;;;4938934;29;20047;-84
2024/02/19 11:31:42;;;;;;;19.42;6.72;;;9.80;99.90;;;;;;4939005;29;20621;-84
2024/02/19 11:34:21;;;;;;;23.38;7.05;;;9.80;99.90;;;;;;4954407;29;20102;-84
2024/02/19 11:36:47;;;;;;;15.27;6.78;;;9.80;99.90;;;;;;4944248;29;20050;-84
2024/02/19 11:39:14;;;;;;;24.48;6.78;;;9.80;99.90;;;;;;4938602;29;20043;-84
2024/02/19 11:41:44;;;;;;;21.10;6.63;;;9.80;99.90;;;;;;4938587;29;20130;-84
2024/02/19 11:44:15;;;;;;;25.95;7.88;;;9.80;99.90;;;;;;4935782;29;20039;-84
2024/02/19 11:46:42;;;;;;;25.20;10.85;;;9.80;99.90;;;;;;4932382;29;20040;-84
2024/02/19 11:49:09;;;;;;;21.05;7.97;;;9.80;99.90;;;;;;4938126;29;20049;-83
2024/02/19 11:51:39;;;;;;;22.88;7.20;;;9.90;99.90;;;;;;4938319;29;20599;-84
2024/02/19 11:54:10;;;;;;;18.17;7.57;;;9.90;99.90;;;;;;4938238;29;20074;-84
2024/02/19 11:56:52;;;;;;;19.77;7.40;;;10.30;99.90;;;;;;4938347;29;20036;-84
2024/02/19 11:59:19;;;;;;;18.33;8.27;;;10.40;99.90;;;;;;4925956;29;20102;-84
2024/02/19 12:01:52;;;;;;;20.73;7.45;;;9.90;99.90;;;;;;4938363;29;20094;-84
2024/02/19 12:04:19;;;;;;;22.85;7.22;;;9.90;99.90;;;;;;4935377;29;20397;-84
2024/02/19 12:06:46;;;;;;;22.65;7.20;;;10.00;99.90;;;;;;4937285;29;20047;-84
2024/02/19 12:09:13;;;;;;;18.27;7.13;;;9.90;99.90;;;;;;4937526;29;20091;-84
2024/02/19 12:11:40;;;;;;;19.52;7.88;;;9.90;99.90;;;;;;4937769;29;20441;-83
2024/02/19 12:14:12;;;;;;;26.42;7.38;;;9.90;99.90;;;;;;4933824;29;20409;-83
2024/02/19 12:16:39;;;;;;;24.20;7.47;;;9.90;99.90;;;;;;4951153;29;20509;-83
2024/02/19 12:19:07;;;;;;;22.70;7.72;;;10.10;99.90;;;;;;4937063;29;20031;-83
2024/02/19 12:21:34;;;;;;;21.83;6.57;;;9.90;99.90;;;;;;4934137;29;20047;-83
2024/02/19 12:24:01;;;;;;;20.73;6.63;;;9.90;99.90;;;;;;4941681;29;20039;-83
2024/02/19 12:26:27;;;;;;;22.75;6.65;;;9.80;99.90;;;;;;4929926;29;20119;-83
2024/02/19 12:28:55;;;;;;;17.30;5.93;;;9.80;99.90;;;;;;4946860;29;20449;-83
2024/02/19 12:31:21;;;;;;;20.75;5.57;;;9.80;99.90;;;;;;4936812;29;20056;-83
2024/02/19 12:33:48;;;;;;;17.27;5.47;;;9.80;99.90;;;;;;4941417;29;20047;-83
2024/02/19 12:36:15;;;;;;;18.95;6.65;;;9.90;99.90;;;;;;4937561;29;20102;-83
2024/02/19 12:38:42;;;;;;;19.40;5.80;;;9.80;99.90;;;;;;4936739;29;20068;-84
2024/02/19 12:41:16;;;;;;;19.75;5.65;;;9.70;99.90;;;;;;4935906;29;20044;-83
2024/02/19 12:43:45;;;;;;;17.10;5.78;;;9.80;99.90;;;;;;4952941;29;20043;-83
2024/02/19 12:46:14;;;;;;;20.20;6.00;;;9.70;99.90;;;;;;4952656;29;20473;-83
2024/02/19 12:48:44;;;;;;;21.65;5.97;;;9.80;99.90;;;;;;4963590;29;20517;-84